Time;durP1;ratioP1;P1;durP2;ratioP2;P2;SDS_P1;SDS_P2;PMS_P1;PMS_P2;Temp;Humidity;BMP_temperature;BMP_pressure;BME280_temperature;BME280_humidity;BME280_pressure;Samples;Min_cycle;Max_cycle;Signal;HPM_P1;HPM_P2
2022/09/06 00:00:25;;;;;;;8.70;3.70;;;21.20;99.90;;;22.73;60.06;100607.34;4997187;28;20663;-64
2022/09/06 00:02:53;;;;;;;6.50;3.87;;;21.20;99.90;;;22.75;60.27;100607.16;4998326;28;20684;-65
2022/09/06 00:05:20;;;;;;;4.67;4.00;;;21.20;99.90;;;22.68;60.16;100606.28;4997195;28;21012;-65
2022/09/06 00:07:47;;;;;;;6.00;4.80;;;21.20;99.90;;;22.75;60.02;100602.66;4997583;28;21248;-65
2022/09/06 00:10:14;;;;;;;7.37;5.00;;;21.20;99.90;;;22.72;60.16;100597.72;4995640;28;20639;-65
2022/09/06 00:12:41;;;;;;;7.10;5.67;;;21.20;99.90;;;22.82;59.94;100600.91;5001364;28;20657;-66
2022/09/06 00:15:09;;;;;;;7.10;4.77;;;21.20;99.90;;;22.81;60.04;100593.91;5008506;28;21207;-64
2022/09/06 00:17:36;;;;;;;4.87;4.37;;;21.20;99.90;;;22.72;60.46;100604.88;5013217;28;20644;-65
2022/09/06 00:20:07;;;;;;;9.93;6.30;;;21.20;99.90;;;22.68;60.67;100607.09;5012007;28;20659;-63
2022/09/06 00:22:35;;;;;;;10.90;5.77;;;21.20;99.90;;;22.70;60.52;100601.59;4993847;28;20617;-64
2022/09/06 00:25:05;;;;;;;6.77;5.97;;;21.20;99.90;;;22.72;60.74;100602.22;4994101;28;20611;-64
2022/09/06 00:27:33;;;;;;;11.80;5.53;;;21.20;99.90;;;22.67;61.01;100607.28;4993763;28;20755;-64
2022/09/06 00:30:00;;;;;;;9.87;6.47;;;21.20;99.90;;;22.64;61.10;100595.19;4992092;28;20642;-64
2022/09/06 00:32:27;;;;;;;6.47;4.87;;;21.20;99.90;;;22.65;61.14;100609.31;5009554;28;20617;-65
2022/09/06 00:34:54;;;;;;;5.53;4.93;;;21.10;99.90;;;22.44;61.98;100610.06;5012965;28;20632;-64
2022/09/06 00:37:21;;;;;;;5.47;3.93;;;21.00;99.90;;;22.51;61.77;100604.84;5013875;28;20647;-65
2022/09/06 00:39:47;;;;;;;4.90;3.57;;;21.00;99.90;;;22.62;61.49;100602.53;5009802;28;20674;-64
2022/09/06 00:42:14;;;;;;;4.33;3.83;;;21.00;99.90;;;22.37;62.40;100603.84;5000728;28;20685;-64
2022/09/06 00:44:41;;;;;;;12.90;5.67;;;20.90;99.90;;;22.51;61.87;100599.50;5007094;28;21091;-64
2022/09/06 00:47:08;;;;;;;8.73;5.57;;;20.90;99.90;;;22.04;63.50;100606.09;5012704;28;20977;-63
2022/09/06 00:49:43;;;;;;;6.20;4.47;;;20.90;99.90;;;22.26;63.09;100610.47;4996481;28;20631;-64
2022/09/06 00:52:14;;;;;;;6.50;4.97;;;20.90;99.90;;;22.30;62.29;100610.91;4994166;28;20655;-64
2022/09/06 00:54:42;;;;;;;7.80;5.47;;;20.90;99.90;;;22.06;63.00;100606.72;4991904;28;20610;-64
2022/09/06 00:57:10;;;;;;;7.73;5.90;;;20.90;99.90;;;22.45;61.83;100603.72;4992069;28;20728;-65
2022/09/06 00:59:39;;;;;;;6.63;5.10;;;20.90;99.90;;;22.49;61.50;100614.84;4991547;28;21272;-66
2022/09/06 01:02:08;;;;;;;7.20;4.70;;;20.90;99.90;;;22.57;61.01;100614.72;5005788;28;21206;-65
2022/09/06 01:04:39;;;;;;;6.10;4.20;;;20.90;99.90;;;22.57;61.17;100620.03;5012421;28;21169;-65
2022/09/06 01:07:34;;;;;;;7.80;5.23;;;21.00;99.90;;;22.44;61.52;100626.03;5011421;28;20647;-65
2022/09/06 01:10:27;;;;;;;8.67;4.83;;;20.90;99.90;;;22.41;61.67;100623.72;4988141;28;21005;-65
2022/09/06 01:13:35;;;;;;;8.57;5.43;;;20.90;99.90;;;22.34;61.93;100636.09;5006051;28;20986;-65
2022/09/06 01:16:36;;;;;;;8.87;5.30;;;20.90;99.90;;;22.36;61.81;100634.09;5011235;28;20626;-66
2022/09/06 01:19:34;;;;;;;4.37;3.97;;;20.90;99.90;;;22.37;61.87;100670.31;5003172;28;20633;-64
2022/09/06 01:22:13;;;;;;;6.73;4.60;;;20.90;99.90;;;22.57;61.56;100753.81;4990683;28;20645;-64
2022/09/06 01:25:02;;;;;;;7.97;4.13;;;20.90;99.90;;;22.52;61.32;100744.72;4975109;28;20615;-64
2022/09/06 01:28:00;;;;;;;4.77;3.73;;;21.10;99.90;;;22.37;60.90;100734.09;4993782;28;21010;-64
2022/09/06 01:30:27;;;;;;;11.43;4.53;;;21.00;99.90;;;22.41;59.10;100748.69;4993349;28;21234;-64
2022/09/06 01:33:15;;;;;;;1.10;1.00;;;21.10;99.90;;;22.58;58.00;100759.94;4992435;28;20606;-65
2022/09/06 01:36:03;;;;;;;9.60;2.93;;;21.10;99.90;;;22.84;57.87;100770.97;4996117;28;20616;-64
2022/09/06 01:38:30;;;;;;;2.57;2.37;;;21.50;99.90;;;23.05;57.34;100774.50;5009207;28;20653;-64
2022/09/06 01:40:57;;;;;;;2.33;2.23;;;21.60;99.90;;;23.26;57.16;100764.88;4997838;28;20664;-63
2022/09/06 01:43:31;;;;;;;2.67;2.47;;;21.90;99.90;;;23.36;57.19;100766.25;5009424;28;20614;-65
2022/09/06 01:46:24;;;;;;;2.13;2.00;;;22.00;99.90;;;23.45;57.39;100762.47;4993611;28;20610;-63
2022/09/06 01:49:23;;;;;;;2.90;1.60;;;22.00;99.90;;;23.40;58.98;100756.91;4991756;28;21039;-63
2022/09/06 01:52:08;;;;;;;2.87;2.60;;;22.10;99.90;;;23.31;61.00;100747.34;4991288;28;20621;-64
2022/09/06 01:55:18;;;;;;;2.13;1.93;;;22.00;99.90;;;23.29;61.49;100738.72;5005806;28;20635;-64
2022/09/06 01:58:14;;;;;;;1.07;0.97;;;22.00;99.90;;;23.26;62.68;100724.94;5005925;28;20668;-63
2022/09/06 02:00:49;;;;;;;2.03;1.93;;;21.90;99.90;;;23.18;64.13;100712.59;4989816;28;20877;-65
2022/09/06 02:03:27;;;;;;;5.80;2.60;;;21.80;99.90;;;22.92;64.91;100686.53;4993828;28;20624;-64
2022/09/06 02:06:02;;;;;;;2.37;2.20;;;21.70;99.90;;;23.03;64.52;100694.03;5009104;28;20648;-63
2022/09/06 02:08:39;;;;;;;2.33;2.23;;;21.60;99.90;;;22.85;65.22;100698.94;5010576;28;20635;-64
2022/09/06 02:11:08;;;;;;;3.90;1.80;;;21.50;99.90;;;22.48;67.24;100699.09;5011655;28;20644;-61
2022/09/06 02:13:48;;;;;;;2.00;1.90;;;21.60;99.90;;;22.60;66.46;100689.66;5000809;28;20649;-64
2022/09/06 02:16:20;;;;;;;3.20;2.40;;;21.50;99.90;;;22.71;66.49;100691.81;5008687;28;20633;-63
2022/09/06 02:18:54;;;;;;;2.40;2.20;;;21.40;99.90;;;22.78;65.54;100690.06;5011196;28;20649;-62
2022/09/06 02:21:29;;;;;;;2.17;2.10;;;21.40;99.90;;;22.86;64.98;100697.94;5010754;28;20668;-63
2022/09/06 02:23:59;;;;;;;4.20;2.00;;;21.40;99.90;;;22.83;65.02;100689.53;4995761;28;21020;-63
2022/09/06 02:26:32;;;;;;;2.40;2.20;;;21.40;99.90;;;22.79;65.25;100686.38;4991237;28;21163;-63
2022/09/06 02:28:59;;;;;;;2.40;2.20;;;21.30;99.90;;;22.86;65.33;100697.09;5002255;28;20641;-64
2022/09/06 02:31:36;;;;;;;2.20;1.80;;;21.30;99.90;;;22.83;65.70;100726.75;5010207;28;20605;-64
2022/09/06 02:34:04;;;;;;;5.60;2.00;;;21.30;99.90;;;22.88;65.68;100738.47;4999091;28;20648;-65
2022/09/06 02:36:34;;;;;;;1.57;1.50;;;21.40;99.90;;;22.76;66.29;100760.44;4994222;28;20637;-63
2022/09/06 02:39:01;;;;;;;1.87;1.80;;;21.40;99.90;;;22.80;66.28;100759.06;4985587;28;21015;-63
2022/09/06 02:41:29;;;;;;;2.63;1.50;;;21.40;99.90;;;22.67;66.91;100761.53;5010950;28;20665;-63
2022/09/06 02:43:56;;;;;;;1.80;1.70;;;21.30;99.90;;;22.69;66.87;100755.03;5000170;28;20718;-64
2022/09/06 02:46:23;;;;;;;1.73;1.60;;;21.30;99.90;;;22.73;67.02;100750.97;4990348;28;20633;-63
2022/09/06 02:48:51;;;;;;;1.80;1.67;;;21.20;99.90;;;22.68;67.13;100723.31;4989995;28;20757;-63
2022/09/06 02:51:18;;;;;;;2.47;1.77;;;21.20;99.90;;;22.73;66.86;100708.44;4990632;28;20623;-63
2022/09/06 02:53:45;;;;;;;1.50;1.40;;;21.30;99.90;;;22.55;67.71;100697.34;4991321;28;20638;-62
2022/09/06 02:56:12;;;;;;;1.30;1.30;;;21.20;99.90;;;22.71;67.32;100697.16;4990887;28;20617;-64
2022/09/06 02:58:39;;;;;;;1.67;1.60;;;21.20;99.90;;;22.55;67.77;100691.19;4995771;28;21254;-63
2022/09/06 03:01:06;;;;;;;1.93;1.83;;;21.20;99.90;;;22.57;67.89;100695.31;4996036;28;20750;-64
2022/09/06 03:03:33;;;;;;;2.17;2.07;;;21.10;99.90;;;22.60;67.24;100707.44;4997032;28;20637;-64
2022/09/06 03:06:00;;;;;;;2.70;2.50;;;21.10;99.90;;;22.69;67.00;100714.31;4998011;28;20640;-65
2022/09/06 03:08:32;;;;;;;2.60;2.20;;;21.10;99.90;;;22.80;68.09;100716.47;4999225;28;20638;-63
2022/09/06 03:11:00;;;;;;;2.90;1.90;;;21.20;99.90;;;22.82;68.23;100688.69;5007820;28;20653;-63
2022/09/06 03:13:27;;;;;;;2.77;1.70;;;21.30;99.90;;;22.75;68.09;100671.81;4991174;28;20645;-63
2022/09/06 03:15:58;;;;;;;2.07;1.97;;;21.30;99.90;;;22.62;68.18;100653.06;4991504;28;20594;-63
2022/09/06 03:18:27;;;;;;;2.57;1.77;;;21.20;99.90;;;22.50;69.03;100651.88;4992401;28;21059;-63
2022/09/06 03:20:56;;;;;;;2.10;2.00;;;21.10;99.90;;;22.37;69.75;100663.16;4990213;28;20671;-63
2022/09/06 03:23:26;;;;;;;2.10;2.00;;;21.00;99.90;;;22.38;69.18;100671.97;4996698;28;20643;-62
2022/09/06 03:25:54;;;;;;;3.67;2.10;;;21.00;99.90;;;22.38;69.33;100667.44;4991579;28;20658;-63
2022/09/06 03:28:21;;;;;;;1.90;1.80;;;21.00;99.90;;;22.37;68.75;100657.03;4999154;28;20649;-63
2022/09/06 03:30:50;;;;;;;2.23;2.13;;;21.00;99.90;;;22.15;69.87;100645.50;5023516;28;21039;-64
2022/09/06 03:33:19;;;;;;;2.50;2.40;;;20.90;99.90;;;22.08;70.26;100649.88;4998967;28;20649;-62
2022/09/06 03:36:01;;;;;;;2.20;2.10;;;20.80;99.90;;;22.20;70.05;100660.88;5005393;28;20734;-63
2022/09/06 03:38:29;;;;;;;2.10;2.00;;;20.80;99.90;;;22.06;70.01;100657.22;5004623;28;20649;-62
2022/09/06 03:40:57;;;;;;;2.57;2.47;;;20.70;99.90;;;22.12;69.76;100645.88;4992386;28;20665;-62
2022/09/06 03:43:26;;;;;;;2.60;2.40;;;20.70;99.90;;;21.74;70.84;100630.16;4998908;28;20643;-62
2022/09/06 03:45:56;;;;;;;3.17;2.80;;;20.70;99.90;;;21.45;71.79;100626.47;4996859;28;20630;-63
2022/09/06 03:48:27;;;;;;;3.40;2.40;;;20.70;99.90;;;21.65;71.39;100632.09;4997042;28;20703;-64
2022/09/06 03:50:57;;;;;;;3.57;3.27;;;20.70;99.90;;;21.97;69.40;100628.28;5005108;28;20636;-64
2022/09/06 03:53:26;;;;;;;4.30;2.90;;;20.60;99.90;;;21.67;70.28;100635.38;5012880;28;20649;-64
2022/09/06 03:55:56;;;;;;;3.10;2.90;;;20.60;99.90;;;21.90;70.52;100632.66;5013479;28;21204;-63
2022/09/06 03:58:29;;;;;;;5.07;2.87;;;20.60;99.90;;;21.96;70.83;100631.94;5002277;28;20692;-63
2022/09/06 04:01:06;;;;;;;3.13;2.93;;;20.50;99.90;;;21.94;69.32;100632.13;5001477;28;20665;-65
2022/09/06 04:03:34;;;;;;;3.53;3.17;;;20.50;99.90;;;21.85;69.26;100627.09;5006158;28;20633;-65
2022/09/06 04:06:02;;;;;;;3.60;3.30;;;20.50;99.90;;;21.89;68.65;100633.69;5012713;28;20626;-65
2022/09/06 04:08:30;;;;;;;3.87;2.70;;;20.50;99.90;;;21.87;70.04;100643.69;5013888;28;20630;-64
2022/09/06 04:10:58;;;;;;;6.30;3.23;;;20.40;99.90;;;21.83;71.96;100639.75;5013328;28;21388;-64
2022/09/06 04:13:27;;;;;;;2.90;2.70;;;20.40;99.90;;;21.78;72.97;100636.75;4996389;28;20626;-62
2022/09/06 04:15:54;;;;;;;3.40;3.10;;;20.40;99.90;;;21.79;73.10;100635.75;5005601;28;20624;-63
2022/09/06 04:18:22;;;;;;;4.13;2.80;;;20.30;99.90;;;21.75;73.87;100627.31;4999667;28;20685;-64
2022/09/06 04:20:52;;;;;;;3.30;2.97;;;20.30;99.90;;;21.77;73.85;100637.75;5005508;28;20753;-64
2022/09/06 04:23:19;;;;;;;6.20;2.83;;;20.20;99.90;;;21.66;74.45;100651.50;5001624;28;20634;-65
2022/09/06 04:25:52;;;;;;;2.87;2.67;;;20.20;99.90;;;21.63;74.95;100648.19;4993833;28;21178;-64
2022/09/06 04:28:20;;;;;;;3.20;2.90;;;20.20;99.90;;;21.38;76.21;100649.41;4994960;28;20677;-63
2022/09/06 04:31:01;;;;;;;3.10;2.80;;;20.00;99.90;;;21.36;76.41;100647.97;5004024;28;21266;-64
2022/09/06 04:33:34;;;;;;;7.10;3.23;;;20.00;99.90;;;21.32;76.61;100652.78;4997554;28;20634;-64
2022/09/06 04:36:04;;;;;;;5.07;2.73;;;19.90;99.90;;;21.46;76.05;100637.91;5009961;28;20725;-64
2022/09/06 04:38:38;;;;;;;8.83;2.90;;;19.90;99.90;;;21.35;76.96;100644.47;4992981;28;20685;-63
2022/09/06 04:41:07;;;;;;;3.17;2.87;;;19.90;99.90;;;21.31;77.31;100640.53;4996749;28;21228;-63
2022/09/06 04:43:34;;;;;;;3.00;2.80;;;19.90;99.90;;;21.30;77.42;100633.56;5011548;28;21211;-63
2022/09/06 04:46:28;;;;;;;3.50;2.33;;;19.90;99.90;;;21.44;77.23;100632.78;4992713;28;20606;-64
2022/09/06 04:48:57;;;;;;;11.03;2.50;;;19.90;99.90;;;21.35;77.34;100639.16;4995642;28;20661;-64
2022/09/06 04:51:24;;;;;;;3.60;2.93;;;19.90;99.90;;;21.30;77.67;100638.88;4992904;28;20633;-64
2022/09/06 04:53:51;;;;;;;2.70;2.50;;;19.90;99.90;;;21.28;77.88;100635.56;4993548;28;20650;-63
2022/09/06 04:56:21;;;;;;;2.73;2.40;;;19.90;99.90;;;21.26;78.32;100647.38;4990752;28;20637;-63
2022/09/06 04:58:50;;;;;;;2.30;1.90;;;19.80;99.90;;;21.09;79.06;100638.72;5033235;23;20710;-67
2022/09/06 05:01:17;;;;;;;2.77;2.57;;;19.80;99.90;;;21.06;79.22;100647.03;5004686;28;20668;-65
2022/09/06 05:03:44;;;;;;;1.93;1.83;;;19.80;99.90;;;21.08;78.88;100641.56;5030126;28;20703;-64
2022/09/06 05:06:22;;;;;;;2.07;1.70;;;19.70;99.90;;;20.95;79.38;100642.13;5031005;28;20634;-67
2022/09/06 05:08:50;;;;;;;2.60;2.40;;;19.70;99.90;;;20.88;80.36;100643.81;5023282;28;20638;-66
2022/09/06 05:11:18;;;;;;;3.50;2.13;;;19.60;99.90;;;20.85;80.69;100647.63;5032133;28;20628;-67
2022/09/06 05:13:46;;;;;;;2.10;2.00;;;19.60;99.90;;;20.89;80.90;100646.28;5030564;28;20617;-67
2022/09/06 05:16:13;;;;;;;2.90;2.50;;;19.50;99.90;;;20.94;80.42;100643.09;5031134;28;20621;-67
2022/09/06 05:18:41;;;;;;;2.33;2.20;;;19.60;99.90;;;20.80;81.14;100634.09;5031125;28;20652;-66
2022/09/06 05:21:08;;;;;;;2.17;2.07;;;19.50;99.90;;;20.82;81.69;100644.53;5026840;28;21059;-64
2022/09/06 05:23:35;;;;;;;3.77;2.53;;;19.50;99.90;;;20.92;81.39;100644.28;5031053;28;20617;-64
2022/09/06 05:26:02;;;;;;;2.90;2.67;;;19.60;99.90;;;21.11;79.67;100642.00;5031176;28;20605;-64
2022/09/06 05:28:29;;;;;;;4.37;3.00;;;19.70;99.90;;;21.23;79.02;100656.50;5028978;28;21032;-65
2022/09/06 05:31:07;;;;;;;2.60;2.40;;;19.90;99.90;;;21.60;77.44;100653.88;5020435;28;20639;-64
2022/09/06 05:33:33;;;;;;;2.80;2.60;;;20.00;99.90;;;22.23;74.44;100657.88;5023233;28;20637;-64
2022/09/06 05:36:02;;;;;;;3.23;2.33;;;20.40;99.90;;;22.52;72.61;100662.31;5030740;28;20620;-64
2022/09/06 05:38:29;;;;;;;3.10;2.90;;;20.80;99.90;;;23.26;70.73;100669.03;5024502;28;20657;-66
2022/09/06 05:40:56;;;;;;;3.03;2.83;;;21.20;99.90;;;23.91;67.97;100667.75;5030554;28;21016;-67
2022/09/06 05:43:23;;;;;;;5.57;2.73;;;21.70;99.90;;;24.74;64.79;100681.91;5030279;28;20613;-67
2022/09/06 05:45:50;;;;;;;2.73;2.27;;;22.20;99.90;;;25.41;61.17;100674.66;5030319;28;20617;-67
2022/09/06 05:48:18;;;;;;;4.03;2.70;;;22.80;99.90;;;25.20;61.63;100681.03;5029596;28;20699;-68
2022/09/06 05:50:45;;;;;;;2.80;2.60;;;23.00;99.90;;;25.26;60.97;100671.34;5015169;28;20632;-67
2022/09/06 05:53:12;;;;;;;2.67;2.50;;;23.20;99.90;;;24.89;62.32;100680.78;5010607;28;20606;-67
2022/09/06 05:55:38;;;;;;;3.50;2.60;;;23.10;99.90;;;24.86;62.70;100680.31;5020663;28;21216;-67
2022/09/06 05:58:08;;;;;;;4.53;2.67;;;22.90;99.90;;;25.11;61.94;100694.75;5029267;28;20719;-66
2022/09/06 06:00:35;;;;;;;3.10;2.90;;;23.10;99.90;;;25.26;61.76;100696.22;5024092;28;21008;-67
2022/09/06 06:03:02;;;;;;;2.90;2.70;;;23.10;99.90;;;25.67;60.02;100705.91;5030388;28;20665;-68
2022/09/06 06:05:29;;;;;;;3.20;2.80;;;23.40;99.90;;;25.35;60.78;100696.84;5028489;28;20633;-67
2022/09/06 06:07:57;;;;;;;3.43;2.67;;;23.40;99.90;;;24.69;62.83;100706.53;5030415;28;20637;-68
2022/09/06 06:10:24;;;;;;;3.90;2.67;;;23.20;99.90;;;24.64;63.71;100708.97;5018661;28;20641;-67
2022/09/06 06:12:51;;;;;;;4.20;3.07;;;23.10;99.90;;;24.70;63.79;100705.53;5011092;28;20625;-67
2022/09/06 06:15:18;;;;;;;4.23;3.67;;;23.00;99.90;;;24.75;63.79;100710.25;5016902;28;20645;-69
2022/09/06 06:17:45;;;;;;;3.67;3.37;;;23.00;99.90;;;25.24;61.48;100714.31;5025652;28;20633;-67
2022/09/06 06:20:12;;;;;;;3.07;2.87;;;23.30;99.90;;;26.63;57.47;100718.50;5029641;28;20639;-67
2022/09/06 06:22:39;;;;;;;5.77;3.37;;;24.00;99.90;;;28.20;53.01;100722.75;5030503;28;20679;-67
2022/09/06 06:25:06;;;;;;;4.60;3.70;;;24.80;99.90;;;28.99;51.05;100728.84;5030105;28;20616;-67
2022/09/06 06:27:34;;;;;;;5.03;3.10;;;25.60;99.90;;;28.88;49.86;100726.91;5012354;28;20650;-65
2022/09/06 06:30:01;;;;;;;3.07;2.83;;;25.90;99.90;;;29.36;48.75;100724.19;5010667;28;20637;-65
2022/09/06 06:32:27;;;;;;;3.73;3.33;;;26.20;99.90;;;28.40;50.62;100724.22;5011181;28;20613;-64
2022/09/06 06:34:54;;;;;;;3.53;3.10;;;26.30;99.90;;;28.08;52.27;100732.59;5020616;28;21222;-65
2022/09/06 06:37:21;;;;;;;3.60;3.30;;;26.00;99.90;;;27.55;53.59;100737.59;5019762;28;20644;-65
2022/09/06 06:39:48;;;;;;;3.37;3.17;;;25.80;99.90;;;26.96;55.10;100729.88;5029525;28;20728;-68
2022/09/06 06:42:15;;;;;;;6.30;4.10;;;25.50;99.90;;;26.06;57.70;100725.44;5023237;28;20675;-67
2022/09/06 06:44:42;;;;;;;4.40;3.70;;;24.70;99.90;;;26.68;57.13;100726.72;5023967;28;20634;-67
2022/09/06 06:47:09;;;;;;;5.80;4.40;;;24.70;99.90;;;28.88;51.44;100734.16;5023938;28;21181;-66
2022/09/06 06:49:36;;;;;;;5.50;4.13;;;25.90;99.90;;;31.16;45.40;100736.53;5020854;28;20633;-68
2022/09/06 06:52:03;;;;;;;5.30;3.37;;;27.20;99.90;;;32.78;41.75;100724.44;5015274;28;20647;-69
2022/09/06 06:54:30;;;;;;;4.43;4.03;;;28.40;99.90;;;31.92;42.92;100738.66;5029576;28;20625;-67
2022/09/06 06:56:56;;;;;;;3.97;3.60;;;28.50;98.70;;;32.06;42.63;100735.38;5029024;28;20636;-65
2022/09/06 06:59:23;;;;;;;4.50;4.10;;;28.80;98.20;;;31.52;43.56;100741.50;5029821;28;20651;-65
2022/09/06 07:01:51;;;;;;;5.87;3.93;;;28.60;98.00;;;30.38;45.38;100739.84;5020636;28;20662;-64
2022/09/06 07:04:18;;;;;;;6.80;3.20;;;28.10;98.00;;;29.35;47.45;100744.06;5013308;28;20614;-65
2022/09/06 07:06:55;;;;;;;4.00;3.60;;;27.40;98.50;;;28.00;50.26;100738.25;5016092;28;20630;-65
2022/09/06 07:09:42;;;;;;;7.50;5.43;;;26.70;99.10;;;28.14;50.29;100737.06;5014364;28;20606;-62
2022/09/06 07:12:29;;;;;;;5.80;5.20;;;26.00;99.90;;;28.85;49.00;100743.50;5017052;28;20617;-64
2022/09/06 07:14:56;;;;;;;6.20;5.60;;;26.30;99.90;;;29.85;46.29;100747.22;5016619;28;20609;-66
2022/09/06 07:17:22;;;;;;;4.50;3.30;;;26.80;99.70;;;29.44;46.14;100731.09;5028572;28;20628;-65
2022/09/06 07:19:49;;;;;;;3.50;3.20;;;27.00;98.90;;;29.54;46.84;100731.34;5018505;28;20638;-66
2022/09/06 07:22:38;;;;;;;4.10;3.57;;;27.10;98.80;;;29.16;46.62;100734.41;5029146;28;20667;-65
2022/09/06 07:25:06;;;;;;;3.20;3.00;;;27.00;98.50;;;28.59;47.71;100737.63;5023440;28;20614;-65
2022/09/06 07:27:33;;;;;;;3.70;3.40;;;26.70;98.20;;;27.52;49.96;100735.31;5014893;28;20653;-66
2022/09/06 07:30:18;;;;;;;3.70;3.40;;;26.00;98.70;;;27.29;50.56;100738.56;5013219;28;20668;-66
2022/09/06 07:32:45;;;;;;;3.67;3.37;;;25.50;99.90;;;27.19;51.26;100734.72;5013508;28;20620;-66
2022/09/06 07:35:12;;;;;;;4.10;3.30;;;25.20;99.90;;;26.62;52.91;100733.72;5013262;28;20643;-66
2022/09/06 07:37:39;;;;;;;3.97;3.20;;;24.80;99.90;;;26.71;52.70;100736.97;5030358;28;21018;-66
2022/09/06 07:40:07;;;;;;;4.20;3.90;;;24.80;99.90;;;26.56;53.23;100736.41;5028906;28;20645;-67
2022/09/06 07:42:34;;;;;;;6.10;3.63;;;24.70;99.90;;;27.29;51.26;100741.25;5024643;28;20668;-66
2022/09/06 07:45:04;;;;;;;3.40;3.20;;;25.00;99.90;;;27.96;50.12;100729.78;5027067;28;20638;-66
2022/09/06 07:47:31;;;;;;;3.77;3.50;;;25.50;99.90;;;28.09;48.81;100729.69;5012511;28;20668;-66
2022/09/06 07:50:17;;;;;;;4.17;3.77;;;25.70;99.90;;;28.09;48.17;100728.88;5017045;28;20998;-64
2022/09/06 07:53:06;;;;;;;4.73;3.53;;;25.70;99.90;;;27.91;48.89;100735.00;5033481;28;20632;-67
2022/09/06 07:55:39;;;;;;;3.60;3.30;;;25.70;99.70;;;27.93;49.01;100727.56;5029155;28;20616;-66
2022/09/06 07:58:06;;;;;;;3.67;3.40;;;25.70;99.70;;;28.38;47.99;100737.03;5025972;28;20665;-67
2022/09/06 08:00:33;;;;;;;3.80;3.50;;;26.00;99.60;;;28.46;47.90;100738.56;5024129;28;20653;-66
2022/09/06 08:03:00;;;;;;;4.73;3.20;;;26.20;98.80;;;29.03;46.11;100729.19;5032936;28;21455;-67
2022/09/06 08:05:27;;;;;;;3.67;3.10;;;26.50;98.40;;;28.90;46.01;100730.19;5027294;28;21135;-66
2022/09/06 08:08:14;;;;;;;4.43;3.87;;;26.70;98.00;;;28.23;47.34;100722.34;5032580;28;20655;-66
2022/09/06 08:11:01;;;;;;;3.50;3.13;;;26.40;97.80;;;28.19;48.05;100735.38;5012621;28;20670;-67
2022/09/06 08:13:28;;;;;;;4.00;3.60;;;26.30;98.20;;;28.08;48.40;100740.66;5013167;28;20624;-66
2022/09/06 08:16:06;;;;;;;3.80;3.50;;;26.10;98.40;;;28.17;48.57;100736.63;5023786;28;20731;-67
2022/09/06 08:18:35;;;;;;;5.90;3.70;;;26.10;98.80;;;30.31;44.47;100744.53;5032556;28;20651;-66
2022/09/06 08:21:10;;;;;;;3.93;3.20;;;27.10;98.10;;;33.92;37.04;100744.72;5032122;28;21018;-66
2022/09/06 08:23:50;;;;;;;4.20;3.53;;;29.10;95.70;;;35.84;33.15;100748.88;5033678;28;20656;-67
2022/09/06 08:26:22;;;;;;;4.37;3.97;;;30.90;92.30;;;36.12;32.95;100750.19;5030242;28;21231;-67
2022/09/06 08:28:59;;;;;;;4.13;3.73;;;31.30;90.40;;;37.17;31.24;100740.75;5032993;28;20643;-68
2022/09/06 08:31:28;;;;;;;3.10;2.83;;;32.10;87.30;;;39.78;27.81;100752.38;5016801;28;20637;-66
2022/09/06 08:33:57;;;;;;;3.37;3.17;;;33.70;82.70;;;40.87;25.96;100745.81;5012824;28;20692;-68
2022/09/06 08:36:28;;;;;;;5.90;3.40;;;35.00;75.50;;;41.95;24.72;100748.34;5024888;28;20632;-66
2022/09/06 08:38:56;;;;;;;3.70;3.50;;;35.60;72.50;;;41.53;24.89;100745.03;5033008;28;20637;-66
2022/09/06 08:41:43;;;;;;;3.90;3.60;;;35.90;68.40;;;42.79;23.27;100748.94;5026987;28;20644;-67
2022/09/06 08:44:19;;;;;;;3.60;3.40;;;36.40;66.70;;;44.70;21.63;100745.06;5030808;28;20988;-67
2022/09/06 08:47:12;;;;;;;3.87;3.60;;;37.70;64.00;;;45.89;20.84;100736.81;5011758;28;20613;-67
2022/09/06 08:49:44;;;;;;;3.40;3.13;;;38.70;61.20;;;45.60;20.28;100731.53;5010707;28;20640;-64
2022/09/06 08:52:36;;;;;;;3.53;3.37;;;38.90;58.30;;;44.68;21.22;100730.84;5029989;28;20998;-67
2022/09/06 08:55:38;;;;;;;3.07;2.97;;;38.50;57.70;;;45.28;20.75;100725.66;5031679;28;20719;-66
2022/09/06 08:59:07;;;;;;;3.53;3.33;;;39.00;56.50;;;44.40;21.22;100715.97;5013501;28;20672;-67
2022/09/06 09:02:09;;;;;;;3.63;3.33;;;39.10;55.20;;;43.47;21.90;100721.47;4985801;28;20652;-67
2022/09/06 09:04:53;;;;;;;3.43;3.20;;;38.40;55.60;;;43.13;22.62;100713.28;4985958;28;20672;-68
2022/09/06 09:07:46;;;;;;;3.40;3.20;;;37.90;56.00;;;43.15;22.61;100713.75;5014283;28;20652;-69
2022/09/06 09:10:20;;;;;;;3.13;3.03;;;37.80;55.90;;;45.09;20.63;100714.31;5030326;28;20674;-68
2022/09/06 09:12:48;;;;;;;3.57;3.37;;;38.60;55.60;;;46.33;19.16;100710.31;5031291;28;20640;-66
2022/09/06 09:15:19;;;;;;;3.10;3.00;;;39.40;53.90;;;48.37;17.75;100715.91;5011639;28;21197;-67
2022/09/06 09:17:49;;;;;;;3.87;3.27;;;41.00;52.40;;;49.51;16.57;100706.81;5011384;28;20638;-68
2022/09/06 09:20:16;;;;;;;3.50;3.30;;;41.80;51.10;;;50.65;16.02;100707.38;5010141;28;20613;-67
2022/09/06 09:22:44;;;;;;;3.50;3.27;;;42.60;49.90;;;51.20;15.65;100702.13;5011972;28;20661;-66
2022/09/06 09:25:22;;;;;;;3.13;2.93;;;43.30;48.80;;;52.20;14.52;100691.44;5011770;28;20625;-67
2022/09/06 09:27:56;;;;;;;4.30;3.17;;;44.20;47.50;;;53.64;14.10;100700.25;5012591;28;20653;-67
2022/09/06 09:30:25;;;;;;;3.30;3.20;;;45.10;46.40;;;53.75;13.16;100689.88;5009351;28;21003;-67
2022/09/06 09:33:28;;;;;;;3.10;3.00;;;45.30;45.20;;;55.11;12.18;100698.22;5012089;28;21229;-67
2022/09/06 09:36:00;;;;;;;3.00;2.90;;;46.40;44.10;;;55.64;11.87;100699.84;5017779;28;21180;-66
2022/09/06 09:38:33;;;;;;;3.43;3.23;;;47.00;43.50;;;55.41;12.80;100683.63;5031296;28;20743;-67
2022/09/06 09:41:06;;;;;;;3.20;3.10;;;47.00;42.80;;;55.47;12.72;100679.19;5016901;28;20648;-67
2022/09/06 09:43:41;;;;;;;3.20;3.10;;;47.20;42.60;;;54.99;11.90;100669.94;5027669;28;20655;-67
2022/09/06 09:46:23;;;;;;;2.70;2.60;;;47.20;41.90;;;53.69;12.91;100671.97;5022752;28;20728;-67
2022/09/06 09:49:21;;;;;;;3.07;2.97;;;46.70;42.10;;;52.45;14.19;100668.09;5030988;28;20636;-67
2022/09/06 09:52:12;;;;;;;3.47;3.37;;;46.00;42.20;;;53.85;13.01;100663.97;5017392;28;20633;-66
2022/09/06 09:54:43;;;;;;;3.13;3.03;;;46.40;42.10;;;53.49;13.33;100661.59;5011678;28;20631;-67
2022/09/06 09:57:16;;;;;;;3.13;3.03;;;46.70;42.20;;;52.69;13.67;100654.69;5009106;28;20643;-67
2022/09/06 09:59:49;;;;;;;3.07;2.97;;;46.40;41.50;;;52.88;13.99;100660.72;5011460;28;20608;-66
2022/09/06 10:02:29;;;;;;;3.23;3.13;;;46.40;41.70;;;51.88;14.91;100655.06;5029565;28;20678;-67
2022/09/06 10:05:16;;;;;;;3.03;2.93;;;45.80;41.90;;;51.65;14.12;100649.69;5030016;28;20616;-67
2022/09/06 10:07:53;;;;;;;3.47;3.37;;;45.40;42.20;;;51.94;13.91;100653.50;5015110;28;21270;-67
2022/09/06 10:10:31;;;;;;;3.37;3.23;;;45.00;42.00;;;54.33;13.34;100663.47;5029622;28;20615;-68
2022/09/06 10:13:23;;;;;;;3.53;3.43;;;46.00;41.90;;;54.41;13.25;100663.06;5013180;28;20659;-67
2022/09/06 10:15:52;;;;;;;3.30;3.20;;;46.00;41.90;;;54.97;11.91;100656.38;5030876;28;20623;-67
2022/09/06 10:18:19;;;;;;;2.97;2.87;;;46.70;41.30;;;54.31;12.89;100660.28;5029857;28;20655;-67
2022/09/06 10:20:54;;;;;;;2.90;2.70;;;46.30;41.30;;;54.35;13.09;100658.25;5020896;28;20676;-67
2022/09/06 10:24:02;;;;;;;3.10;2.97;;;46.20;41.30;;;51.81;14.16;100655.78;5009813;28;20661;-68
2022/09/06 10:27:03;;;;;;;3.43;3.33;;;45.60;41.80;;;47.26;17.87;100638.09;5026980;28;20635;-67
2022/09/06 10:29:38;;;;;;;3.20;3.10;;;42.60;43.90;;;45.98;19.22;100638.28;5014240;28;21023;-66
2022/09/06 10:32:38;;;;;;;3.40;3.20;;;41.90;44.90;;;43.21;21.83;100624.59;5010903;28;20609;-67
2022/09/06 10:35:25;;;;;;;3.90;3.70;;;40.40;46.90;;;40.94;24.82;100616.75;4997944;28;20711;-66
2022/09/06 10:38:04;;;;;;;4.33;3.80;;;38.40;48.20;;;38.99;27.49;100620.47;5009445;28;20629;-66